Weather observations for the past three days for
Waco, Mc Gregor Executive Airport
Imperial (Metric)
Date Time (cdt) Wind (mph) Vis. (mi.) Weather Sky Cond. Temperature (ºF) Relative Humidity Wind Chill (°F) Heat Index (°F) Pressure Precipitation (in)
Air Dwpt 6 hour altimeter (in) sea level (mb) 1 hr 3 hr 6 hr
Max. Min.
02 22:56 E 9 10.00 Fair CLR 82.9 72 70% 88 29.94 1013.0
02 21:56 E 8 10.00 Partly Cloudy SCT080 84.9 72 65% 91 29.93 1012.6
02 20:56 E 9 10.00 Fair CLR 87.1 71.1 59% 93 29.9 1011.8
02 19:56 E 15 10.00 Fair CLR 90 71.1 54% 96 29.88 1011.0
02 18:56 NE 10 10.00 Mostly Cloudy BKN085 98.1 64.9 102 96.1 34% 101 29.86 1010.1
02 17:56 NE 7 10.00 Fair CLR 100 66 33% 104 29.85 1009.9
02 16:56 NE 8 10.00 Fair CLR 100 64.9 32% 103 29.86 1010.0
02 15:56 N 9 10.00 A Few Clouds FEW075 100.9 66.9 33% 106 29.87 1010.8
02 14:56 Vrbl 3 G 16 10.00 A Few Clouds FEW070 99 66.9 35% 104 29.9 1011.7
02 13:56 S 6 10.00 A Few Clouds FEW065 98.1 69.1 39% 104 29.93 1012.6
02 12:56 NE 9 10.00 Fair CLR 96.1 70 97 75 43% 103 29.96 1013.5
02 11:56 Vrbl 3 10.00 Fair CLR 93 71.1 49% 100 29.99 1014.7
02 10:56 Calm 10.00 Fair CLR 89.1 71.1 55% 95 30.01 1015.1
02 09:56 E 5 9.00 Fair CLR 87.1 71.1 59% 93 30.01 1015.2
02 08:56 Calm 9.00 Fair CLR 82.9 72 70% 88 30.01 1015.2
02 07:56 Calm 10.00 Fair CLR 77 70 79% 79 30 1015.0
02 06:56 Calm 10.00 Fair CLR 75 69.1 82 75 82% 75 29.98 1014.4
02 05:56 NE 3 10.00 Fair CLR 77 70 79% 79 29.98 1014.5
02 04:56 Calm 10.00 Fair CLR 77 69.1 77% 79 29.97 1014.0
02 03:56 Calm 10.00 Fair CLR 78.1 70 76% 80 29.98 1014.1
02 02:56 S 5 10.00 Partly Cloudy SCT070 81 70 69% 84 29.99 1014.4
02 01:56 S 5 10.00 Fair CLR 81 70 69% 84 29.99 1014.7
02 00:56 S 6 10.00 Fair CLR 82 70 97 82 67% 86 30 1014.8
01 23:56 SE 8 10.00 Fair CLR 84 70 63% 88 29.99 1014.4
01 22:56 SE 14 G 18 10.00 Fair CLR 86 70 59% 91 29.98 1014.3
01 21:56 SE 12 10.00 Fair CLR 88 68 52% 92 29.96 1013.5
01 20:56 E 6 10.00 Fair CLR 89.1 68 50% 93 29.93 1012.4
01 19:56 SE 7 10.00 Fair CLR 93 66 41% 96 29.91 1012.1
01 18:56 E 8 10.00 Fair CLR 97 68 100 93 39% 102 29.92 1012.2
01 17:56 E 10 10.00 Fair CLR 97 66.9 37% 101 29.92 1012.3
01 16:56 E 12 10.00 Fair CLR 98.1 66.9 36% 103 29.93 1012.3
01 15:56 SE 9 10.00 Partly Cloudy SCT070 97 66.9 37% 101 29.94 1013.0
01 14:56 Vrbl 6 10.00 Fair CLR 96.1 68 40% 101 29.96 1013.7
01 13:56 NE 6 10.00 Partly Cloudy SCT060 95 69.1 43% 101 29.99 1014.4
01 12:56 Vrbl 6 10.00 Partly Cloudy SCT060 95 70 96.1 75.9 44% 101 30.02 1015.5
01 11:56 SE 5 10.00 Fair CLR 93.9 70 46% 100 30.04 1016.2
01 10:56 SE 8 10.00 Fair CLR 91.9 70 49% 98 30.05 1016.6
01 09:56 Calm 10.00 Fair CLR 88 71.1 57% 94 30.05 1016.8
01 08:56 Calm 10.00 Fair CLR 84 73 70% 90 30.05 1016.8
01 07:56 Calm 10.00 Fair CLR 78.1 73 85% 81 30.05 1016.5
01 06:56 Calm 10.00 Fair CLR 75.9 72 82.9 75.9 88% 76 30.03 1016.0
01 05:56 Calm 10.00 Fair CLR 78.1 72 82% 80 30.02 1015.7
01 04:56 S 3 10.00 Fair CLR 80.1 72 76% 84 30.02 1015.6
01 03:56 S 7 10.00 Fair CLR 81 72 74% 85 30.01 1015.4
01 02:56 S 8 10.00 Fair CLR 82 71.1 69% 86 30.01 1015.3
01 01:56 S 9 10.00 Fair CLR 82 69.1 65% 85 30.01 1015.3
01 00:56 S 8 10.00 Fair CLR 82.9 66 97 82 57% 85 30 1015.0
31 23:56 SE 7 10.00 Fair CLR 82.9 62.1 49% 84 29.99 1014.4
31 22:56 Calm 10.00 Fair CLR 82.9 62.1 49% 84 29.97 1014.1
31 21:56 S 3 10.00 Fair CLR 84.9 61 45% 85 29.96 1013.7
31 20:56 SE 5 10.00 Fair CLR 89.1 61 39% 89 29.95 1013.1
31 19:56 SE 7 10.00 Fair CLR 93 61 34% 93 29.93 1012.7
31 18:56 SE 10 10.00 Fair CLR 97 63 100.9 96.1 33% 99 29.93 1012.6
31 17:56 SE 9 10.00 A Few Clouds FEW090 98.1 61 29% 99 29.94 1012.7
31 16:56 SE 10 10.00 Mostly Cloudy BKN090 100 61 28% 101 29.94 1012.9
31 15:56 SE 9 G 23 10.00 Fair CLR 100 63 30% 102 29.96 1013.7
31 14:56 S 9 10.00 Fair CLR 98.1 64.9 34% 101 29.99 1014.7
31 13:56 SE 12 10.00 Fair CLR 97 64.9 35% 100 30.01 1015.5
31 12:56 SE 12 G 18 10.00 Fair CLR 96.1 66.9 97 75.9 39% 100 30.03 1016.2
31 11:56 S 12 10.00 Fair CLR 95 68 41% 100 30.05 1016.9
31 10:56 SE 7 10.00 Fair CLR 90 71.1 54% 96 30.06 1016.9
31 09:56 S 7 10.00 Fair CLR 87.1 73.9 65% 95 30.05 1016.7
31 08:56 S 7 10.00 Fair CLR 82 75 79% 89 30.04 1016.5
31 07:56 S 3 10.00 Fair CLR 78.1 73.9 87% 81 30.03 1015.9
31 06:56 S 5 10.00 Fair CLR 75.9 73 84 75.9 91% 76 30.01 1015.4
31 05:56 S 8 10.00 Fair CLR 77 73 88% 78 29.99 1014.8
31 04:56 S 9 10.00 Fair CLR 77 71.1 82% 79 30 1014.8
31 03:56 S 8 10.00 Fair CLR 78.1 70 76% 80 29.99 1014.5
31 02:56 S 7 10.00 Fair CLR 80.1 70 71% 83 29.99 1014.7
31 01:56 S 9 10.00 Fair CLR 82.9 70 65% 87 29.99 1014.8
31 00:56 S 9 10.00 Fair CLR 84 69.1 97 82.9 61% 88 29.99 1014.7
30 23:56 S 10 10.00 Fair CLR 84 66 55% 86 29.99 1014.4
Date Time (cdt) Wind (mph) Vis. (mi.) Weather Sky Cond. Air Dwpt Max. Min. Relative Humidity Wind Chill (°F) Heat Index (°F) altimeter (in) sea level (mb) 1 hr 3 hr 6 hr
6 hour
Temperature (ºF) Pressure Precipitation (in)